AYMH/HGU METAR and TAF weather

Enter ICAO airport designator
Station Type Date Time Source
AYMH METAR 2021/07/26 05:00 UTC NOAA

AYMH 260500Z 28010KT 9999 -SHRA BKN040 23/15 Q1019=


Station Type Date Time Source
AYMH Decoded METAR 2021/07/26 05:00 UTC NOAA

Station name not available
Jul 26, 2021 - 01:00 AM EDT / 2021.07.26 0500 UTC
Wind: from the W (280 degrees) at 12 MPH (10 KT):0
Visibility: greater than 7 mile(s):0
Sky conditions: mostly cloudy
Weather: light rain showers
Temperature: 73 F (23 C)
Dew Point: 59 F (15 C)
Relative Humidity: 60%
Pressure (altimeter): 30.09 in. Hg (1019 hPa)
ob: AYMH 260500Z 28010KT 9999 -SHRA BKN040 23/15 Q1019=
cycle: 5

Station Type Date Time Source
AYMH TAF UTC NOAA

Error!

Example: see airport list